Time;durP1;ratioP1;P1;durP2;ratioP2;P2;SDS_P1;SDS_P2;PMS_P1;PMS_P2;Temp;Humidity;BMP_temperature;BMP_pressure;BME280_temperature;BME280_humidity;BME280_pressure;Samples;Min_cycle;Max_cycle;Signal;HPM_P1;HPM_P2
2022/01/14 00:01:18;;;;;;;86.37;35.73;;;6.20;99.90;;;;;;5029497;28;20072;-74
2022/01/14 00:03:44;;;;;;;87.73;35.40;;;6.20;99.90;;;;;;5013608;28;20047;-75
2022/01/14 00:06:11;;;;;;;89.93;37.10;;;6.20;99.90;;;;;;5030766;28;20153;-74
2022/01/14 00:08:36;;;;;;;93.53;36.03;;;6.20;99.90;;;;;;5046746;28;20041;-75
2022/01/14 00:11:03;;;;;;;73.73;33.57;;;6.20;99.90;;;;;;5028789;28;20037;-75
2022/01/14 00:16:05;;;;;;;72.10;33.43;;;6.20;99.90;;;;;;5028782;28;20056;-75
2022/01/14 00:18:31;;;;;;;77.63;34.37;;;6.20;99.90;;;;;;5013803;28;20075;-75
2022/01/14 00:20:59;;;;;;;79.93;35.27;;;6.20;99.90;;;;;;5011770;28;20036;-75
2022/01/14 00:23:30;;;;;;;67.23;34.17;;;6.20;99.90;;;;;;5029642;28;20111;-74
2022/01/14 00:34:15;;;;;;;76.85;35.67;;;6.20;99.90;;;;;;5028889;28;20049;-74
2022/01/14 00:36:42;;;;;;;76.43;36.20;;;6.20;99.90;;;;;;5029817;28;20048;-75
2022/01/14 00:39:10;;;;;;;77.28;35.03;;;6.20;99.90;;;;;;5048579;28;20049;-75
2022/01/14 00:41:37;;;;;;;74.27;34.97;;;6.20;99.90;;;;;;5029478;28;20033;-75
2022/01/14 00:44:09;;;;;;;65.10;34.63;;;6.20;99.90;;;;;;5046044;28;20123;-75
2022/01/14 00:46:35;;;;;;;75.30;35.77;;;6.20;99.90;;;;;;5030036;28;20199;-75
2022/01/14 00:49:01;;;;;;;76.23;35.17;;;6.20;99.90;;;;;;5012933;28;20111;-75
2022/01/14 00:51:27;;;;;;;75.93;36.17;;;6.20;99.90;;;;;;5029138;28;20461;-75
2022/01/14 00:53:53;;;;;;;61.90;32.73;;;6.20;99.90;;;;;;5013149;28;20045;-75
2022/01/14 01:01:35;;;;;;;67.83;35.20;;;6.20;99.90;;;;;;5025563;28;20049;-74
2022/01/14 01:04:04;;;;;;;69.97;34.83;;;6.20;99.90;;;;;;5027407;28;20103;-74
2022/01/14 01:06:30;;;;;;;68.87;33.10;;;6.20;99.90;;;;;;5027670;28;20072;-75
2022/01/14 01:08:56;;;;;;;67.13;35.50;;;6.30;99.90;;;;;;5042060;28;20083;-75
2022/01/14 01:11:28;;;;;;;60.73;34.37;;;6.30;99.90;;;;;;5028037;28;20052;-74
2022/01/14 01:14:23;;;;;;;57.47;30.63;;;6.30;99.90;;;;;;5028766;28;20045;-75
2022/01/14 01:16:43;;;;;;;56.67;32.20;;;6.20;99.90;;;;;;5028907;28;20061;-74
2022/01/14 01:19:10;;;;;;;59.60;32.07;;;6.30;99.90;;;;;;5027987;28;20045;-74
2022/01/14 01:21:36;;;;;;;63.80;32.23;;;6.30;99.90;;;;;;4996041;28;20044;-74
2022/01/14 01:24:02;;;;;;;64.47;34.10;;;6.30;99.90;;;;;;5048707;28;20063;-74
2022/01/14 01:26:35;;;;;;;62.13;33.77;;;6.30;99.90;;;;;;5030057;28;20121;-74
2022/01/14 01:31:37;;;;;;;54.10;31.07;;;6.30;99.90;;;;;;5029242;28;20735;-75
2022/01/14 01:34:09;;;;;;;57.83;30.50;;;6.30;99.90;;;;;;5029034;28;20048;-74
2022/01/14 01:36:36;;;;;;;59.13;31.33;;;6.30;99.90;;;;;;5029611;28;20491;-74
2022/01/14 01:39:05;;;;;;;56.33;30.30;;;6.30;99.90;;;;;;5012255;28;20061;-74
2022/01/14 01:41:33;;;;;;;61.63;31.70;;;6.30;99.90;;;;;;5028601;28;20519;-74
2022/01/14 01:43:59;;;;;;;55.93;31.83;;;6.30;99.90;;;;;;5028752;28;20053;-74
2022/01/14 01:46:25;;;;;;;53.03;31.92;;;6.30;99.90;;;;;;5032537;28;20084;-75
2022/01/14 01:48:52;;;;;;;57.87;31.67;;;6.30;99.90;;;;;;5016745;28;20135;-74
2022/01/14 01:51:19;;;;;;;56.13;30.20;;;6.30;99.90;;;;;;5029356;28;20045;-74
2022/01/14 01:53:46;;;;;;;53.20;31.53;;;6.30;99.90;;;;;;5022927;28;20049;-74
2022/01/14 01:56:13;;;;;;;62.07;32.30;;;6.30;99.90;;;;;;5035665;28;20551;-74
2022/01/14 01:58:39;;;;;;;55.30;31.25;;;6.30;99.90;;;;;;5016201;28;20044;-74
2022/01/14 02:01:06;;;;;;;57.40;30.45;;;6.30;99.90;;;;;;5033701;28;20076;-74
2022/01/14 02:03:34;;;;;;;54.83;31.40;;;6.30;99.90;;;;;;5032617;28;20045;-74
2022/01/14 02:06:00;;;;;;;55.13;30.20;;;6.30;99.90;;;;;;5049473;28;20041;-74
2022/01/14 02:08:26;;;;;;;57.90;31.57;;;6.30;99.90;;;;;;5032325;28;20128;-74
2022/01/14 02:10:52;;;;;;;52.67;31.97;;;6.30;99.90;;;;;;5031174;28;20182;-74
2022/01/14 02:13:18;;;;;;;57.20;31.63;;;6.30;99.90;;;;;;5031727;28;20106;-74
2022/01/14 02:18:38;;;;;;;62.72;34.15;;;6.30;99.90;;;;;;5032070;28;20068;-74
2022/01/14 02:24:06;;;;;;;61.27;33.77;;;6.30;99.90;;;;;;5032406;28;20083;-74
2022/01/14 02:26:32;;;;;;;62.30;34.08;;;6.30;99.90;;;;;;5033568;28;20092;-75
2022/01/14 02:28:58;;;;;;;56.38;31.75;;;6.30;99.90;;;;;;5048098;28;20565;-74
2022/01/14 02:31:27;;;;;;;58.08;31.33;;;6.30;99.90;;;;;;5032373;28;20041;-75
2022/01/14 02:33:53;;;;;;;60.83;33.97;;;6.40;99.90;;;;;;5048571;28;20128;-74
2022/01/14 02:36:18;;;;;;;55.83;32.43;;;6.40;99.90;;;;;;5032667;28;20444;-75
2022/01/14 02:38:45;;;;;;;57.42;33.75;;;6.40;99.90;;;;;;5031936;28;20057;-75
2022/01/14 02:41:11;;;;;;;57.53;32.15;;;6.40;99.90;;;;;;5048122;28;20033;-75
2022/01/14 02:43:37;;;;;;;60.67;32.95;;;6.40;99.90;;;;;;5032000;28;20045;-74
2022/01/14 02:46:06;;;;;;;60.97;33.35;;;6.40;99.90;;;;;;5001141;28;20526;-75
2022/01/14 02:48:32;;;;;;;65.85;35.13;;;6.40;99.90;;;;;;5031416;28;20051;-74
2022/01/14 02:51:18;;;;;;;59.22;34.22;;;6.40;99.90;;;;;;5029889;28;20057;-75
2022/01/14 02:53:56;;;;;;;57.50;35.10;;;6.30;99.90;;;;;;5049052;28;20441;-75
2022/01/14 02:56:28;;;;;;;60.88;34.63;;;6.30;99.90;;;;;;5030385;28;20052;-75
2022/01/14 02:58:57;;;;;;;66.47;35.67;;;6.30;99.90;;;;;;5032121;28;20047;-75
2022/01/14 03:01:24;;;;;;;66.45;36.08;;;6.30;99.90;;;;;;5033221;28;20060;-75
2022/01/14 03:03:55;;;;;;;57.40;34.38;;;6.30;99.90;;;;;;5016876;28;20048;-75
2022/01/14 03:06:21;;;;;;;64.57;34.67;;;6.30;99.90;;;;;;5031831;28;20055;-75
2022/01/14 03:08:47;;;;;;;61.73;35.13;;;6.30;99.90;;;;;;5032864;28;20132;-75
2022/01/14 03:11:29;;;;;;;59.97;34.97;;;6.30;99.90;;;;;;5001075;28;20385;-75
2022/01/14 03:13:58;;;;;;;62.67;33.57;;;6.30;99.90;;;;;;5013336;28;20048;-75
2022/01/14 03:16:24;;;;;;;64.97;34.30;;;6.30;99.90;;;;;;5013357;28;20041;-75
2022/01/14 03:18:53;;;;;;;70.70;37.77;;;6.30;99.90;;;;;;5041125;28;20055;-75
2022/01/14 03:21:28;;;;;;;66.93;36.20;;;6.30;99.90;;;;;;5028169;28;20065;-75
2022/01/14 03:24:17;;;;;;;72.93;39.60;;;6.30;99.90;;;;;;5012408;28;20049;-75
2022/01/14 03:26:45;;;;;;;90.67;43.73;;;6.30;99.90;;;;;;4999841;28;20053;-75
2022/01/14 03:29:12;;;;;;;80.10;43.00;;;6.20;99.90;;;;;;4996331;28;20081;-75
2022/01/14 03:31:38;;;;;;;101.77;46.23;;;6.20;99.90;;;;;;5007055;28;20089;-75
2022/01/14 03:34:04;;;;;;;94.13;43.63;;;6.20;99.90;;;;;;5020109;28;20077;-75
2022/01/14 03:36:30;;;;;;;96.30;45.35;;;6.20;99.90;;;;;;5008266;28;20072;-75
2022/01/14 03:38:56;;;;;;;89.93;43.37;;;6.10;99.90;;;;;;4996378;28;20118;-75
2022/01/14 03:41:21;;;;;;;93.03;44.75;;;6.10;99.90;;;;;;4996002;28;20045;-75
2022/01/14 03:43:47;;;;;;;93.27;44.90;;;6.10;99.90;;;;;;5048590;28;20150;-75
2022/01/14 03:46:16;;;;;;;84.23;44.30;;;6.10;99.90;;;;;;5000693;28;20045;-74
2022/01/14 03:48:42;;;;;;;102.40;45.10;;;6.10;99.90;;;;;;5032394;28;20056;-75
2022/01/14 03:51:08;;;;;;;99.93;44.72;;;6.10;99.90;;;;;;5019206;28;20367;-74
2022/01/14 03:53:34;;;;;;;100.33;46.07;;;6.00;99.90;;;;;;5018186;28;20476;-75
2022/01/14 03:56:00;;;;;;;97.90;45.13;;;6.00;99.90;;;;;;5032465;28;20376;-75
2022/01/14 03:58:25;;;;;;;102.30;44.97;;;6.00;99.90;;;;;;5048074;28;20039;-74
2022/01/14 04:00:51;;;;;;;101.03;44.60;;;6.00;99.90;;;;;;5017241;28;20066;-75
2022/01/14 04:03:17;;;;;;;102.07;45.80;;;6.00;99.90;;;;;;5014355;28;20044;-74
2022/01/14 04:05:43;;;;;;;110.23;46.63;;;6.00;99.90;;;;;;5032367;28;20099;-75
2022/01/14 04:08:09;;;;;;;110.00;47.08;;;6.00;99.90;;;;;;5031744;28;20072;-75
2022/01/14 04:10:35;;;;;;;103.95;43.85;;;5.90;99.90;;;;;;5011317;28;20507;-74
2022/01/14 04:13:11;;;;;;;108.50;47.00;;;5.90;99.90;;;;;;5015958;28;20045;-74
2022/01/14 04:15:37;;;;;;;110.27;47.10;;;5.90;99.90;;;;;;5017136;28;20049;-75
2022/01/14 04:18:20;;;;;;;102.80;44.93;;;5.90;99.90;;;;;;5015467;28;20203;-75
2022/01/14 04:20:48;;;;;;;111.00;46.73;;;5.90;99.90;;;;;;5004678;28;20052;-75
2022/01/14 04:23:18;;;;;;;108.73;47.40;;;5.90;99.90;;;;;;5015622;28;20187;-75
2022/01/14 04:25:44;;;;;;;109.35;47.70;;;5.90;99.90;;;;;;5015235;28;20124;-75
2022/01/14 04:28:10;;;;;;;105.93;45.10;;;5.90;99.90;;;;;;5032300;28;20041;-74
2022/01/14 04:30:37;;;;;;;102.97;47.63;;;5.90;99.90;;;;;;5031766;28;20041;-75
2022/01/14 04:33:06;;;;;;;104.77;47.33;;;5.90;99.90;;;;;;5015763;28;20131;-75
2022/01/14 04:35:33;;;;;;;97.47;45.50;;;5.90;99.90;;;;;;5031384;28;20041;-75
2022/01/14 04:37:59;;;;;;;100.70;46.23;;;5.90;99.90;;;;;;5032189;28;20049;-75
2022/01/14 04:40:25;;;;;;;96.27;44.77;;;5.90;99.90;;;;;;5015589;28;20083;-74
2022/01/14 04:42:52;;;;;;;98.80;45.85;;;5.90;99.90;;;;;;4999615;28;20048;-75
2022/01/14 04:48:05;;;;;;;89.70;45.77;;;5.90;99.90;;;;;;5032016;28;20140;-74
2022/01/14 04:50:32;;;;;;;88.83;44.53;;;5.90;99.90;;;;;;4998693;28;20033;-74
2022/01/14 04:52:57;;;;;;;94.17;46.30;;;6.00;99.90;;;;;;5017529;28;20037;-75
2022/01/14 04:55:25;;;;;;;88.90;46.47;;;5.80;99.90;;;;;;5014874;28;20069;-75
2022/01/14 04:57:52;;;;;;;89.07;43.58;;;5.90;99.90;;;;;;5011765;28;20166;-75
2022/01/14 05:00:22;;;;;;;87.37;43.23;;;5.90;99.90;;;;;;5002766;28;20136;-75
2022/01/14 05:02:48;;;;;;;93.57;45.43;;;5.90;99.90;;;;;;5024931;28;20055;-75
2022/01/14 05:05:17;;;;;;;98.07;45.27;;;5.90;99.90;;;;;;4997686;28;20037;-74
2022/01/14 05:07:45;;;;;;;92.57;46.00;;;5.90;99.90;;;;;;5004034;28;20044;-74
2022/01/14 05:12:56;;;;;;;96.57;45.37;;;5.80;99.90;;;;;;4996893;28;20068;-75
2022/01/14 05:15:23;;;;;;;94.67;45.90;;;5.80;99.90;;;;;;5011405;28;20100;-75
2022/01/14 05:17:50;;;;;;;85.93;44.60;;;5.80;99.90;;;;;;5011535;28;20050;-74
2022/01/14 05:20:17;;;;;;;86.77;44.03;;;5.80;99.90;;;;;;4992568;28;20050;-75
2022/01/14 05:22:44;;;;;;;91.20;44.03;;;5.90;99.90;;;;;;5010551;28;20397;-75
2022/01/14 05:25:11;;;;;;;84.50;41.73;;;5.80;99.90;;;;;;5015395;28;20053;-75
2022/01/14 05:27:37;;;;;;;90.57;43.77;;;5.80;99.90;;;;;;5014526;28;20069;-75
2022/01/14 05:30:08;;;;;;;85.80;42.60;;;5.80;99.90;;;;;;5015848;28;20049;-75
2022/01/14 05:32:34;;;;;;;79.77;41.17;;;5.80;99.90;;;;;;4998342;28;20056;-75
2022/01/14 05:35:00;;;;;;;91.10;44.40;;;5.80;99.90;;;;;;5032037;28;20056;-75
2022/01/14 05:37:26;;;;;;;97.07;44.63;;;5.70;99.90;;;;;;5015232;28;20045;-75
2022/01/14 05:39:52;;;;;;;87.03;42.43;;;5.80;99.90;;;;;;4998693;28;20139;-75
2022/01/14 05:42:19;;;;;;;90.13;42.90;;;5.80;99.90;;;;;;5015133;28;20132;-75
2022/01/14 05:44:45;;;;;;;87.13;42.23;;;5.70;99.90;;;;;;5031401;28;20053;-75
2022/01/14 05:47:11;;;;;;;81.87;42.00;;;5.70;99.90;;;;;;5014864;28;20038;-75
2022/01/14 05:49:36;;;;;;;87.13;43.43;;;5.70;99.90;;;;;;5001508;28;20090;-75
2022/01/14 05:52:02;;;;;;;73.17;42.13;;;5.70;99.90;;;;;;5027196;28;20057;-75
2022/01/14 05:54:28;;;;;;;81.07;42.87;;;5.70;99.90;;;;;;5014680;28;20092;-75
2022/01/14 05:56:57;;;;;;;83.23;44.57;;;5.60;99.90;;;;;;5047829;28;20101;-74
2022/01/14 05:59:23;;;;;;;82.27;43.83;;;5.60;99.90;;;;;;5033106;28;20098;-75
2022/01/14 06:01:49;;;;;;;78.33;44.10;;;5.60;99.90;;;;;;5050175;28;20499;-75
2022/01/14 06:04:15;;;;;;;84.63;46.00;;;5.60;99.90;;;;;;5032508;28;20083;-75
2022/01/14 06:06:41;;;;;;;76.40;42.13;;;5.60;99.90;;;;;;5032503;28;20056;-75
2022/01/14 06:09:07;;;;;;;76.10;44.20;;;5.60;99.90;;;;;;5032233;28;20044;-75
2022/01/14 06:11:33;;;;;;;74.83;44.27;;;5.60;99.90;;;;;;5015914;28;20102;-75
2022/01/14 06:13:58;;;;;;;76.27;42.30;;;5.60;99.90;;;;;;5031753;28;20041;-75
2022/01/14 06:16:24;;;;;;;81.40;46.10;;;5.60;99.90;;;;;;5016304;28;20483;-75
2022/01/14 06:18:50;;;;;;;77.53;46.27;;;5.60;99.90;;;;;;5032805;28;20367;-75
2022/01/14 06:21:16;;;;;;;76.77;44.17;;;5.60;99.90;;;;;;5011805;28;20041;-75
2022/01/14 06:23:42;;;;;;;71.57;42.77;;;5.70;99.90;;;;;;5028773;28;20061;-75
2022/01/14 06:26:08;;;;;;;69.73;41.33;;;5.60;99.90;;;;;;4996640;28;20129;-75
2022/01/14 06:28:34;;;;;;;71.40;42.13;;;5.60;99.90;;;;;;5029265;28;20033;-75
2022/01/14 06:31:00;;;;;;;77.40;44.80;;;5.60;99.90;;;;;;5028449;28;20144;-75
2022/01/14 06:33:26;;;;;;;71.10;41.33;;;5.60;99.90;;;;;;4994130;28;20129;-75
2022/01/14 06:35:52;;;;;;;71.57;43.23;;;5.60;99.90;;;;;;5012267;28;20123;-74
2022/01/14 06:38:19;;;;;;;67.20;42.53;;;5.70;99.90;;;;;;4996590;28;20156;-75
2022/01/14 06:40:48;;;;;;;69.50;41.77;;;5.70;99.90;;;;;;5027989;28;20049;-75
2022/01/14 06:43:15;;;;;;;60.20;39.33;;;5.70;99.90;;;;;;5028588;28;20124;-75
2022/01/14 06:45:41;;;;;;;55.57;38.17;;;5.70;99.90;;;;;;5028323;28;20117;-75
2022/01/14 06:48:07;;;;;;;59.90;38.43;;;5.70;99.90;;;;;;5045133;28;20496;-75
2022/01/14 06:50:33;;;;;;;58.50;38.27;;;5.70;99.90;;;;;;5011036;28;20064;-75
2022/01/14 06:52:59;;;;;;;58.63;38.67;;;5.70;99.90;;;;;;5027818;28;20084;-74
2022/01/14 06:55:25;;;;;;;53.20;37.43;;;5.70;99.90;;;;;;5028893;28;20073;-75
2022/01/14 06:57:51;;;;;;;51.40;35.63;;;5.80;99.90;;;;;;5026133;28;20475;-75
2022/01/14 07:00:18;;;;;;;53.83;36.63;;;5.80;99.90;;;;;;5010195;28;20077;-75
2022/01/14 07:02:44;;;;;;;51.57;34.80;;;5.80;99.90;;;;;;5010794;28;20397;-74
2022/01/14 07:05:11;;;;;;;48.37;34.43;;;5.80;99.90;;;;;;5028345;28;20041;-74
2022/01/14 07:07:37;;;;;;;48.27;34.10;;;5.80;99.90;;;;;;5028003;28;20060;-74
2022/01/14 07:10:05;;;;;;;48.23;34.00;;;5.90;99.90;;;;;;5026809;28;20049;-74
2022/01/14 07:12:37;;;;;;;43.47;33.07;;;5.90;99.90;;;;;;5027634;28;20037;-74
2022/01/14 07:15:05;;;;;;;48.03;35.73;;;5.90;99.90;;;;;;5025870;28;20136;-74
2022/01/14 07:17:31;;;;;;;45.80;32.63;;;5.90;99.90;;;;;;5028086;28;20052;-74
2022/01/14 07:20:01;;;;;;;48.67;32.80;;;5.90;99.90;;;;;;5010051;28;20045;-74
2022/01/14 07:22:27;;;;;;;45.17;32.67;;;5.90;99.90;;;;;;5043968;28;20053;-74
2022/01/14 07:24:53;;;;;;;51.17;33.87;;;5.90;99.90;;;;;;5010734;28;20045;-74
2022/01/14 07:27:19;;;;;;;49.90;34.50;;;5.90;99.90;;;;;;4992398;28;20057;-74
2022/01/14 07:29:48;;;;;;;48.10;32.83;;;5.90;99.90;;;;;;5010987;28;20037;-75
2022/01/14 07:32:13;;;;;;;43.60;32.40;;;6.00;99.90;;;;;;5009654;28;20037;-74
2022/01/14 07:34:39;;;;;;;44.23;31.17;;;6.00;99.90;;;;;;5025995;28;20046;-75
2022/01/14 07:37:05;;;;;;;47.37;33.20;;;6.00;99.90;;;;;;4993058;28;20517;-75
2022/01/14 07:39:31;;;;;;;48.90;32.83;;;6.00;99.90;;;;;;5004305;28;20506;-75
2022/01/14 07:41:57;;;;;;;43.57;33.73;;;6.00;99.90;;;;;;5018541;28;20045;-75
2022/01/14 07:44:23;;;;;;;44.87;32.83;;;6.00;99.90;;;;;;5007506;28;20567;-75
2022/01/14 07:46:49;;;;;;;49.73;32.53;;;6.00;99.90;;;;;;5019734;28;20041;-75
2022/01/14 07:49:15;;;;;;;48.97;33.20;;;6.00;99.90;;;;;;5008573;28;20083;-75
2022/01/14 07:51:42;;;;;;;41.17;30.90;;;6.00;99.90;;;;;;5023916;28;20085;-75
2022/01/14 07:54:08;;;;;;;45.17;30.80;;;6.00;99.90;;;;;;5035971;28;20038;-75
2022/01/14 07:56:36;;;;;;;42.95;30.77;;;6.10;99.90;;;;;;5022892;28;20042;-75
2022/01/14 07:59:05;;;;;;;45.73;29.97;;;6.10;99.90;;;;;;4995335;28;20099;-75
2022/01/14 08:01:33;;;;;;;46.13;29.83;;;6.00;99.90;;;;;;5019374;28;20042;-75
2022/01/14 08:04:00;;;;;;;48.80;29.53;;;6.00;99.90;;;;;;5006934;28;20057;-75
2022/01/14 08:06:27;;;;;;;44.20;28.90;;;6.10;99.90;;;;;;5017604;28;20049;-75
2022/01/14 08:08:53;;;;;;;43.20;30.93;;;6.10;99.90;;;;;;5002978;28;20041;-75
2022/01/14 08:11:19;;;;;;;45.57;30.13;;;6.10;99.90;;;;;;5021225;28;20655;-75
2022/01/14 08:13:45;;;;;;;37.97;28.03;;;6.10;99.90;;;;;;5016048;28;20058;-75
2022/01/14 08:16:11;;;;;;;39.43;28.67;;;6.10;99.90;;;;;;5024721;28;20466;-75
2022/01/14 08:18:36;;;;;;;38.13;28.17;;;6.20;99.90;;;;;;5010349;28;20129;-75
2022/01/14 08:21:04;;;;;;;46.10;27.77;;;6.30;99.90;;;;;;5043395;28;20045;-75
2022/01/14 08:23:30;;;;;;;40.55;27.33;;;6.20;99.90;;;;;;4996895;28;20082;-75
2022/01/14 08:25:57;;;;;;;37.27;27.37;;;6.20;99.90;;;;;;5045151;28;20514;-75
2022/01/14 08:28:25;;;;;;;43.87;27.33;;;6.20;99.90;;;;;;5041538;28;20355;-75
2022/01/14 08:30:51;;;;;;;36.70;24.88;;;6.20;99.90;;;;;;5001716;28;20049;-75
2022/01/14 08:33:17;;;;;;;40.10;28.07;;;6.30;99.90;;;;;;5017981;28;20037;-75
2022/01/14 08:35:43;;;;;;;42.97;26.55;;;6.30;99.90;;;;;;4999133;28;20411;-75
2022/01/14 08:38:09;;;;;;;38.58;24.98;;;6.30;99.90;;;;;;5004663;28;20092;-75
2022/01/14 08:40:35;;;;;;;37.92;25.92;;;6.30;99.90;;;;;;5010965;28;20040;-75
2022/01/14 08:43:01;;;;;;;39.78;25.63;;;6.30;99.90;;;;;;5026714;28;20071;-75
2022/01/14 08:45:27;;;;;;;35.60;25.58;;;6.30;99.90;;;;;;5020933;28;20037;-76
2022/01/14 08:47:55;;;;;;;41.67;24.70;;;6.30;99.90;;;;;;5008806;28;20884;-76
2022/01/14 08:50:35;;;;;;;40.00;24.33;;;6.30;99.90;;;;;;5010158;28;20069;-75
2022/01/14 08:53:03;;;;;;;34.78;23.33;;;6.30;99.90;;;;;;5010624;28;20527;-75
2022/01/14 08:55:29;;;;;;;33.33;24.30;;;6.40;99.90;;;;;;5010353;28;20045;-75
2022/01/14 08:57:57;;;;;;;37.42;22.70;;;6.40;99.90;;;;;;5005462;28;20054;-75
2022/01/14 09:00:25;;;;;;;36.85;23.58;;;6.40;99.90;;;;;;5009271;28;20476;-75
2022/01/14 09:02:52;;;;;;;35.92;22.58;;;6.40;99.90;;;;;;5028745;28;20288;-75
2022/01/14 09:05:18;;;;;;;35.60;22.10;;;6.40;99.90;;;;;;5002340;28;20518;-75
2022/01/14 09:07:44;;;;;;;34.00;23.47;;;6.40;99.90;;;;;;5023366;28;20525;-75
2022/01/14 09:10:10;;;;;;;31.65;23.55;;;6.50;99.90;;;;;;4990536;28;20076;-75
2022/01/14 09:12:36;;;;;;;32.38;21.38;;;6.50;99.90;;;;;;5019550;28;20526;-75
2022/01/14 09:15:03;;;;;;;32.85;21.85;;;6.50;99.90;;;;;;5019152;28;20071;-75
2022/01/14 09:17:29;;;;;;;34.70;22.30;;;6.50;99.90;;;;;;5010072;28;20561;-75
2022/01/14 09:19:56;;;;;;;33.15;21.23;;;6.50;99.90;;;;;;5016550;28;20045;-75
2022/01/14 09:22:22;;;;;;;30.27;20.83;;;6.60;99.90;;;;;;4985361;28;20050;-76
2022/01/14 09:24:48;;;;;;;31.90;19.47;;;6.60;99.90;;;;;;5000609;28;20058;-75
2022/01/14 09:27:15;;;;;;;30.75;18.95;;;6.60;99.90;;;;;;5021787;28;20443;-75
2022/01/14 09:29:42;;;;;;;32.60;19.52;;;6.60;99.90;;;;;;5001316;28;20227;-75
2022/01/14 09:32:09;;;;;;;32.40;18.58;;;6.70;99.90;;;;;;5006909;28;20056;-75
2022/01/14 09:34:36;;;;;;;27.63;18.73;;;6.70;99.90;;;;;;5004964;28;20116;-76
2022/01/14 09:37:03;;;;;;;27.38;18.70;;;6.70;99.90;;;;;;4987722;28;20404;-75
2022/01/14 09:39:31;;;;;;;28.07;18.50;;;6.80;99.90;;;;;;4997537;28;20042;-75
2022/01/14 09:41:58;;;;;;;29.25;18.13;;;6.80;99.90;;;;;;4999026;28;20092;-74
2022/01/14 09:44:26;;;;;;;35.63;19.92;;;6.80;99.90;;;;;;5006268;28;20083;-73
2022/01/14 09:46:53;;;;;;;26.83;16.95;;;6.90;99.90;;;;;;5021066;28;20594;-74
2022/01/14 09:49:19;;;;;;;24.77;15.82;;;6.90;99.90;;;;;;5010530;28;20041;-74
2022/01/14 09:51:46;;;;;;;30.95;15.93;;;6.90;99.90;;;;;;4992255;28;20080;-74
2022/01/14 09:54:12;;;;;;;26.33;15.40;;;6.90;99.90;;;;;;4998373;28;20528;-74
2022/01/14 09:56:39;;;;;;;27.83;16.45;;;7.00;99.90;;;;;;5022624;28;20054;-74
2022/01/14 09:59:06;;;;;;;23.02;14.43;;;7.00;99.90;;;;;;5025810;28;20073;-74
2022/01/14 10:01:43;;;;;;;28.30;15.45;;;7.00;99.90;;;;;;5005245;28;20053;-74
2022/01/14 10:04:22;;;;;;;23.15;13.02;;;7.10;99.90;;;;;;5019470;28;20165;-75
2022/01/14 10:06:51;;;;;;;21.67;12.48;;;7.10;99.90;;;;;;5029020;28;20475;-74
2022/01/14 10:09:29;;;;;;;22.58;13.30;;;7.10;99.90;;;;;;5012397;28;20080;-74
2022/01/14 10:12:11;;;;;;;23.00;12.93;;;7.10;99.90;;;;;;5014121;28;20492;-74
2022/01/14 10:14:43;;;;;;;25.43;12.73;;;7.20;99.90;;;;;;5030186;28;20044;-74
2022/01/14 10:17:10;;;;;;;22.40;12.32;;;7.20;99.90;;;;;;5013749;28;20088;-74
2022/01/14 10:19:41;;;;;;;20.15;12.00;;;7.20;99.90;;;;;;5014217;28;20064;-75
2022/01/14 10:22:22;;;;;;;20.35;12.27;;;7.20;99.90;;;;;;5004488;28;20381;-75
2022/01/14 10:25:00;;;;;;;;;;;7.30;99.90;;;;;;4998522;28;20410;-74
2022/01/14 10:27:31;;;;;;;22.67;12.45;;;7.30;99.90;;;;;;5014547;28;20449;-74
2022/01/14 10:30:10;;;;;;;21.55;11.68;;;7.30;99.90;;;;;;4993579;28;20076;-74
2022/01/14 10:32:38;;;;;;;23.03;11.87;;;7.30;99.90;;;;;;5014562;28;20046;-74
2022/01/14 10:35:08;;;;;;;17.80;9.80;;;7.30;99.90;;;;;;5021103;28;20831;-75
2022/01/14 10:37:35;;;;;;;16.45;9.15;;;7.30;99.90;;;;;;5012333;28;20045;-75
2022/01/14 10:40:04;;;;;;;17.63;9.98;;;7.40;99.90;;;;;;5007111;28;20097;-75
2022/01/14 10:42:36;;;;;;;19.17;9.25;;;7.40;99.90;;;;;;5006203;28;20037;-75
2022/01/14 10:45:27;;;;;;;18.95;8.05;;;7.40;99.90;;;;;;5021154;28;20073;-75
2022/01/14 10:48:16;;;;;;;17.70;8.45;;;7.40;99.90;;;;;;4994061;28;20529;-75
2022/01/14 10:50:45;;;;;;;15.88;8.43;;;7.50;99.90;;;;;;5010193;28;20050;-75
2022/01/14 10:53:13;;;;;;;14.57;8.40;;;7.50;99.90;;;;;;5024975;28;20137;-74
2022/01/14 10:55:40;;;;;;;14.80;7.55;;;7.50;99.90;;;;;;5033259;28;20049;-75
2022/01/14 10:58:26;;;;;;;15.05;7.70;;;7.50;99.90;;;;;;5029342;28;20504;-75
2022/01/14 11:01:05;;;;;;;12.73;6.88;;;7.50;99.90;;;;;;5025315;28;20054;-75
2022/01/14 11:03:56;;;;;;;17.73;7.25;;;7.60;99.90;;;;;;5013513;28;20380;-74
2022/01/14 11:06:31;;;;;;;15.85;7.63;;;7.50;99.90;;;;;;5029678;28;20071;-75
2022/01/14 11:09:01;;;;;;;17.80;7.35;;;7.50;99.90;;;;;;5012161;28;20313;-75
2022/01/14 11:11:33;;;;;;;18.33;7.90;;;7.50;99.90;;;;;;5010563;28;20079;-75
2022/01/14 11:13:59;;;;;;;18.42;8.48;;;7.50;99.90;;;;;;5007976;28;20045;-75
2022/01/14 11:16:25;;;;;;;16.40;7.55;;;7.50;99.90;;;;;;5004353;28;20041;-75
2022/01/14 11:18:53;;;;;;;19.13;8.00;;;7.50;99.90;;;;;;5023038;28;20047;-75
2022/01/14 11:24:07;;;;;;;12.18;7.20;;;7.50;99.90;;;;;;5020179;28;20095;-74
2022/01/14 11:26:36;;;;;;;19.77;7.25;;;7.50;99.90;;;;;;5039927;28;20049;-75
2022/01/14 11:29:10;;;;;;;18.63;6.75;;;7.50;99.90;;;;;;4999013;28;20504;-74
2022/01/14 11:31:38;;;;;;;16.25;6.93;;;7.50;99.90;;;;;;5027509;28;20046;-74
2022/01/14 11:34:09;;;;;;;13.55;6.78;;;7.60;99.90;;;;;;5046226;28;20045;-75
2022/01/14 11:36:58;;;;;;;15.30;6.57;;;7.60;99.90;;;;;;5011570;28;20446;-75
2022/01/14 11:39:26;;;;;;;18.58;7.13;;;7.50;99.90;;;;;;5019986;28;20487;-75
2022/01/14 11:41:58;;;;;;;13.60;6.43;;;7.50;99.90;;;;;;5006748;28;20546;-75
2022/01/14 11:47:43;;;;;;;18.30;8.20;;;7.60;99.90;;;;;;5024361;28;20082;-75
2022/01/14 11:50:30;;;;;;;14.30;6.35;;;7.50;99.90;;;;;;5023633;28;20056;-75
2022/01/14 11:52:59;;;;;;;13.90;6.32;;;7.50;99.90;;;;;;5026503;28;20048;-74
2022/01/14 11:55:31;;;;;;;14.80;6.47;;;7.50;99.90;;;;;;5020869;28;20045;-74
2022/01/14 11:58:05;;;;;;;18.17;6.57;;;7.50;99.90;;;;;;5026126;28;20283;-75
2022/01/14 12:00:42;;;;;;;13.65;6.57;;;7.60;99.90;;;;;;5021890;28;20045;-75
2022/01/14 12:03:07;;;;;;;18.65;6.70;;;7.60;99.90;;;;;;5023778;28;20091;-74
2022/01/14 12:05:37;;;;;;;15.63;6.35;;;7.60;99.90;;;;;;5024502;28;20041;-75
2022/01/14 12:10:31;;;;;;;19.88;6.88;;;7.60;99.90;;;;;;5019542;28;20037;-75
2022/01/14 12:14:12;;;;;;;16.45;6.57;;;7.60;99.90;;;;;;5031809;28;20041;-75
2022/01/14 12:16:25;;;;;;;20.58;6.78;;;7.60;99.90;;;;;;5014629;28;20092;-75
2022/01/14 12:18:58;;;;;;;17.35;6.80;;;7.70;99.90;;;;;;5031701;28;20396;-75
2022/01/14 12:21:44;;;;;;;17.00;7.53;;;7.60;99.90;;;;;;5031610;28;20060;-75
2022/01/14 12:24:19;;;;;;;16.48;6.35;;;7.60;99.90;;;;;;4986418;28;20550;-75
2022/01/14 12:27:00;;;;;;;17.35;6.80;;;7.60;99.90;;;;;;5028304;28;20051;-75
2022/01/14 12:29:33;;;;;;;17.85;7.57;;;7.70;99.90;;;;;;5011272;28;20110;-75
2022/01/14 12:32:03;;;;;;;19.58;7.03;;;7.60;99.90;;;;;;5012297;28;20148;-76
2022/01/14 12:34:40;;;;;;;25.58;7.50;;;7.60;99.90;;;;;;4993668;28;20049;-75
2022/01/14 12:37:09;;;;;;;21.85;7.22;;;7.60;99.90;;;;;;5003864;28;20049;-75
2022/01/14 12:39:37;;;;;;;19.92;7.25;;;7.60;99.90;;;;;;5010451;28;20444;-74
2022/01/14 12:42:03;;;;;;;16.27;6.70;;;7.60;99.90;;;;;;5011582;28;20056;-74
2022/01/14 12:44:29;;;;;;;17.65;6.75;;;7.60;99.90;;;;;;4995258;28;20053;-75
2022/01/14 12:47:07;;;;;;;16.58;6.55;;;7.60;99.90;;;;;;4979414;28;20049;-75
2022/01/14 12:49:38;;;;;;;13.57;6.28;;;7.60;99.90;;;;;;5005535;28;20049;-76
2022/01/14 12:52:14;;;;;;;13.02;6.38;;;7.60;99.90;;;;;;5023054;28;20056;-75
2022/01/14 12:54:42;;;;;;;17.15;6.78;;;7.70;99.90;;;;;;5012674;28;20214;-75
2022/01/14 12:57:08;;;;;;;13.13;5.75;;;7.60;99.90;;;;;;5013209;28;20146;-75
2022/01/14 12:59:42;;;;;;;16.75;6.55;;;7.60;99.90;;;;;;5003817;28;20057;-75
2022/01/14 13:02:14;;;;;;;16.05;6.55;;;7.50;99.90;;;;;;5007756;28;20483;-75
2022/01/14 13:04:40;;;;;;;16.20;6.22;;;7.50;99.90;;;;;;4983950;28;20068;-75
2022/01/14 13:07:07;;;;;;;14.20;6.72;;;7.60;99.90;;;;;;4974395;28;20503;-75
2022/01/14 13:09:35;;;;;;;18.50;6.32;;;7.60;99.90;;;;;;4985696;28;20479;-75
2022/01/14 13:12:07;;;;;;;17.05;6.25;;;7.50;99.90;;;;;;4994020;28;20542;-75
2022/01/14 13:14:40;;;;;;;22.27;6.95;;;7.50;99.90;;;;;;5009555;28;20056;-75
2022/01/14 13:17:18;;;;;;;17.77;6.85;;;7.50;99.90;;;;;;5023064;28;20064;-75
2022/01/14 13:19:46;;;;;;;15.02;7.28;;;7.50;99.90;;;;;;4991076;28;20284;-75
2022/01/14 13:22:15;;;;;;;21.55;6.80;;;7.50;99.90;;;;;;5014311;28;20050;-75
2022/01/14 13:24:43;;;;;;;18.88;7.00;;;7.50;99.90;;;;;;5017852;28;20041;-75